sensor_id;sensor_type;location;lat;lon;timestamp;temperature;humidity
12926;DHT22;6529;50.566;9.774;2023-06-14T00:00:39;16.00;99.90
12926;DHT22;6529;50.566;9.774;2023-06-14T00:03:08;15.90;1.00
12926;DHT22;6529;50.566;9.774;2023-06-14T00:05:36;15.80;1.00
12926;DHT22;6529;50.566;9.774;2023-06-14T00:08:06;15.60;1.00
12926;DHT22;6529;50.566;9.774;2023-06-14T00:10:33;15.30;1.00
12926;DHT22;6529;50.566;9.774;2023-06-14T00:13:03;15.20;90.10
12926;DHT22;6529;50.566;9.774;2023-06-14T00:15:31;14.90;99.90
12926;DHT22;6529;50.566;9.774;2023-06-14T00:17:57;14.90;1.00
12926;DHT22;6529;50.566;9.774;2023-06-14T00:20:29;14.90;1.00
12926;DHT22;6529;50.566;9.774;2023-06-14T00:22:56;15.00;99.90
12926;DHT22;6529;50.566;9.774;2023-06-14T00:25:23;15.00;99.90
12926;DHT22;6529;50.566;9.774;2023-06-14T00:27:50;15.10;99.90
12926;DHT22;6529;50.566;9.774;2023-06-14T00:30:16;15.20;99.90
12926;DHT22;6529;50.566;9.774;2023-06-14T00:32:42;15.10;38.50
12926;DHT22;6529;50.566;9.774;2023-06-14T00:35:09;15.20;8.00
12926;DHT22;6529;50.566;9.774;2023-06-14T00:37:35;15.10;99.90
12926;DHT22;6529;50.566;9.774;2023-06-14T00:40:01;15.20;40.90
12926;DHT22;6529;50.566;9.774;2023-06-14T00:42:27;15.20;1.00
12926;DHT22;6529;50.566;9.774;2023-06-14T00:44:53;15.20;99.90
12926;DHT22;6529;50.566;9.774;2023-06-14T00:47:19;15.50;98.70
12926;DHT22;6529;50.566;9.774;2023-06-14T00:49:51;15.60;1.00
12926;DHT22;6529;50.566;9.774;2023-06-14T00:52:18;15.50;1.00
12926;DHT22;6529;50.566;9.774;2023-06-14T00:54:44;15.50;1.00
12926;DHT22;6529;50.566;9.774;2023-06-14T00:57:11;15.40;1.00
12926;DHT22;6529;50.566;9.774;2023-06-14T00:59:46;15.10;98.40
12926;DHT22;6529;50.566;9.774;2023-06-14T01:02:13;14.90;99.90
12926;DHT22;6529;50.566;9.774;2023-06-14T01:04:41;14.80;1.00
12926;DHT22;6529;50.566;9.774;2023-06-14T01:13:03;14.20;1.00
12926;DHT22;6529;50.566;9.774;2023-06-14T01:15:31;14.10;1.00
12926;DHT22;6529;50.566;9.774;2023-06-14T01:17:57;14.30;1.00
12926;DHT22;6529;50.566;9.774;2023-06-14T01:20:32;14.10;1.00
12926;DHT22;6529;50.566;9.774;2023-06-14T01:23:01;14.20;1.00
12926;DHT22;6529;50.566;9.774;2023-06-14T01:25:27;14.40;1.00
12926;DHT22;6529;50.566;9.774;2023-06-14T01:27:57;14.40;63.40
12926;DHT22;6529;50.566;9.774;2023-06-14T01:30:24;14.40;1.00
12926;DHT22;6529;50.566;9.774;2023-06-14T01:32:54;14.40;1.00
12926;DHT22;6529;50.566;9.774;2023-06-14T01:35:20;14.40;1.00
12926;DHT22;6529;50.566;9.774;2023-06-14T01:37:47;14.30;2.20
12926;DHT22;6529;50.566;9.774;2023-06-14T01:40:15;14.30;99.90
12926;DHT22;6529;50.566;9.774;2023-06-14T01:42:41;14.20;99.90
12926;DHT22;6529;50.566;9.774;2023-06-14T01:45:09;14.00;99.90
12926;DHT22;6529;50.566;9.774;2023-06-14T01:47:35;14.00;1.00
12926;DHT22;6529;50.566;9.774;2023-06-14T01:50:05;13.80;1.00
12926;DHT22;6529;50.566;9.774;2023-06-14T01:52:30;13.80;1.00
12926;DHT22;6529;50.566;9.774;2023-06-14T01:54:56;13.70;1.00
12926;DHT22;6529;50.566;9.774;2023-06-14T01:57:24;13.70;1.00
12926;DHT22;6529;50.566;9.774;2023-06-14T01:59:50;13.70;4.20
12926;DHT22;6529;50.566;9.774;2023-06-14T02:02:16;13.70;1.00
12926;DHT22;6529;50.566;9.774;2023-06-14T02:04:42;13.70;63.40
12926;DHT22;6529;50.566;9.774;2023-06-14T02:07:08;13.70;11.40
12926;DHT22;6529;50.566;9.774;2023-06-14T02:09:34;13.70;1.00
12926;DHT22;6529;50.566;9.774;2023-06-14T02:12:00;13.70;1.00
12926;DHT22;6529;50.566;9.774;2023-06-14T02:14:26;13.90;99.90
12926;DHT22;6529;50.566;9.774;2023-06-14T02:16:52;14.00;99.90
12926;DHT22;6529;50.566;9.774;2023-06-14T02:19:19;13.90;99.90
12926;DHT22;6529;50.566;9.774;2023-06-14T02:21:46;14.10;99.90
12926;DHT22;6529;50.566;9.774;2023-06-14T02:24:12;14.10;54.90
12926;DHT22;6529;50.566;9.774;2023-06-14T02:26:37;14.00;99.90
12926;DHT22;6529;50.566;9.774;2023-06-14T02:29:07;13.90;99.90
12926;DHT22;6529;50.566;9.774;2023-06-14T02:31:35;13.90;99.90
12926;DHT22;6529;50.566;9.774;2023-06-14T02:34:01;13.70;99.90
12926;DHT22;6529;50.566;9.774;2023-06-14T02:36:26;13.50;99.90
12926;DHT22;6529;50.566;9.774;2023-06-14T02:38:52;13.50;1.00
12926;DHT22;6529;50.566;9.774;2023-06-14T02:41:19;13.50;1.00
12926;DHT22;6529;50.566;9.774;2023-06-14T02:43:45;13.60;1.00
12926;DHT22;6529;50.566;9.774;2023-06-14T02:46:10;13.60;1.00
12926;DHT22;6529;50.566;9.774;2023-06-14T02:48:36;13.50;1.00
12926;DHT22;6529;50.566;9.774;2023-06-14T02:51:02;13.50;4.70
12926;DHT22;6529;50.566;9.774;2023-06-14T02:53:27;13.30;1.00
12926;DHT22;6529;50.566;9.774;2023-06-14T02:55:53;13.20;28.20
12926;DHT22;6529;50.566;9.774;2023-06-14T02:58:20;12.90;1.00
12926;DHT22;6529;50.566;9.774;2023-06-14T03:00:46;13.00;99.90
12926;DHT22;6529;50.566;9.774;2023-06-14T03:03:12;13.10;1.00
12926;DHT22;6529;50.566;9.774;2023-06-14T03:05:44;13.20;1.00
12926;DHT22;6529;50.566;9.774;2023-06-14T03:08:18;13.30;1.00
12926;DHT22;6529;50.566;9.774;2023-06-14T03:10:47;13.40;99.90
12926;DHT22;6529;50.566;9.774;2023-06-14T03:13:14;13.30;99.90
12926;DHT22;6529;50.566;9.774;2023-06-14T03:15:41;13.40;1.00
12926;DHT22;6529;50.566;9.774;2023-06-14T03:18:10;13.40;1.00
12926;DHT22;6529;50.566;9.774;2023-06-14T03:20:37;13.50;1.00
12926;DHT22;6529;50.566;9.774;2023-06-14T03:23:04;13.50;1.00
12926;DHT22;6529;50.566;9.774;2023-06-14T03:25:31;13.60;99.90
12926;DHT22;6529;50.566;9.774;2023-06-14T03:27:57;13.50;1.00
12926;DHT22;6529;50.566;9.774;2023-06-14T03:30:23;13.50;1.00
12926;DHT22;6529;50.566;9.774;2023-06-14T03:32:48;13.30;1.00
12926;DHT22;6529;50.566;9.774;2023-06-14T03:35:14;13.20;1.00
12926;DHT22;6529;50.566;9.774;2023-06-14T03:37:46;13.10;20.80
12926;DHT22;6529;50.566;9.774;2023-06-14T03:40:13;13.10;1.00
12926;DHT22;6529;50.566;9.774;2023-06-14T03:42:39;13.10;1.00
12926;DHT22;6529;50.566;9.774;2023-06-14T03:45:05;13.10;99.90
12926;DHT22;6529;50.566;9.774;2023-06-14T03:47:31;13.20;99.90
12926;DHT22;6529;50.566;9.774;2023-06-14T03:49:57;13.20;99.90
12926;DHT22;6529;50.566;9.774;2023-06-14T03:52:23;13.30;99.90
12926;DHT22;6529;50.566;9.774;2023-06-14T03:54:49;13.40;99.90
12926;DHT22;6529;50.566;9.774;2023-06-14T03:57:15;13.40;1.00
12926;DHT22;6529;50.566;9.774;2023-06-14T03:59:41;13.40;61.00
12926;DHT22;6529;50.566;9.774;2023-06-14T04:02:07;13.30;1.00
12926;DHT22;6529;50.566;9.774;2023-06-14T04:04:33;13.30;71.40
12926;DHT22;6529;50.566;9.774;2023-06-14T04:07:01;13.40;20.80
12926;DHT22;6529;50.566;9.774;2023-06-14T04:09:29;13.40;42.60
12926;DHT22;6529;50.566;9.774;2023-06-14T04:11:55;13.50;99.90
12926;DHT22;6529;50.566;9.774;2023-06-14T04:14:21;13.50;99.90
12926;DHT22;6529;50.566;9.774;2023-06-14T04:16:48;13.50;99.90
12926;DHT22;6529;50.566;9.774;2023-06-14T04:19:14;13.50;90.70
12926;DHT22;6529;50.566;9.774;2023-06-14T04:21:40;13.60;99.90
12926;DHT22;6529;50.566;9.774;2023-06-14T04:24:06;13.60;99.90
12926;DHT22;6529;50.566;9.774;2023-06-14T04:26:32;13.70;99.90
12926;DHT22;6529;50.566;9.774;2023-06-14T04:29:00;13.70;99.90
12926;DHT22;6529;50.566;9.774;2023-06-14T04:31:29;13.80;99.90
12926;DHT22;6529;50.566;9.774;2023-06-14T04:33:55;13.80;99.90
12926;DHT22;6529;50.566;9.774;2023-06-14T04:36:21;13.80;99.90
12926;DHT22;6529;50.566;9.774;2023-06-14T04:38:46;13.80;99.90
12926;DHT22;6529;50.566;9.774;2023-06-14T04:41:12;13.80;99.90
12926;DHT22;6529;50.566;9.774;2023-06-14T04:43:38;13.80;1.00
12926;DHT22;6529;50.566;9.774;2023-06-14T04:46:05;13.80;1.00
12926;DHT22;6529;50.566;9.774;2023-06-14T04:48:31;13.80;1.00
12926;DHT22;6529;50.566;9.774;2023-06-14T04:50:57;13.90;1.00
12926;DHT22;6529;50.566;9.774;2023-06-14T04:53:23;14.00;1.00
12926;DHT22;6529;50.566;9.774;2023-06-14T04:55:49;14.00;1.00
12926;DHT22;6529;50.566;9.774;2023-06-14T04:58:16;14.10;1.00
12926;DHT22;6529;50.566;9.774;2023-06-14T05:00:41;14.20;1.00
12926;DHT22;6529;50.566;9.774;2023-06-14T05:03:09;14.20;1.00
12926;DHT22;6529;50.566;9.774;2023-06-14T05:05:34;14.30;1.00
12926;DHT22;6529;50.566;9.774;2023-06-14T05:08:00;14.40;1.00
12926;DHT22;6529;50.566;9.774;2023-06-14T05:10:26;14.40;1.00
12926;DHT22;6529;50.566;9.774;2023-06-14T05:12:51;14.40;1.00
12926;DHT22;6529;50.566;9.774;2023-06-14T05:15:18;14.40;1.00
12926;DHT22;6529;50.566;9.774;2023-06-14T05:17:45;14.40;1.00
12926;DHT22;6529;50.566;9.774;2023-06-14T05:20:12;14.40;1.00
12926;DHT22;6529;50.566;9.774;2023-06-14T05:22:38;14.50;99.90
12926;DHT22;6529;50.566;9.774;2023-06-14T05:25:04;14.40;1.00
12926;DHT22;6529;50.566;9.774;2023-06-14T05:27:29;14.40;1.00
12926;DHT22;6529;50.566;9.774;2023-06-14T05:29:55;14.40;1.00
12926;DHT22;6529;50.566;9.774;2023-06-14T05:32:24;14.50;99.90
12926;DHT22;6529;50.566;9.774;2023-06-14T05:34:49;14.50;99.90
12926;DHT22;6529;50.566;9.774;2023-06-14T05:37:15;14.50;99.90
12926;DHT22;6529;50.566;9.774;2023-06-14T05:39:42;14.70;99.90
12926;DHT22;6529;50.566;9.774;2023-06-14T05:42:07;14.70;99.90
12926;DHT22;6529;50.566;9.774;2023-06-14T05:44:33;14.80;99.90
12926;DHT22;6529;50.566;9.774;2023-06-14T05:46:58;14.80;99.90
12926;DHT22;6529;50.566;9.774;2023-06-14T05:49:24;14.80;1.00
12926;DHT22;6529;50.566;9.774;2023-06-14T05:51:50;14.90;1.00
12926;DHT22;6529;50.566;9.774;2023-06-14T05:54:15;14.90;1.00
12926;DHT22;6529;50.566;9.774;2023-06-14T05:56:41;15.10;99.90
12926;DHT22;6529;50.566;9.774;2023-06-14T05:59:06;15.20;1.00
12926;DHT22;6529;50.566;9.774;2023-06-14T06:01:32;15.10;1.00
12926;DHT22;6529;50.566;9.774;2023-06-14T06:03:59;15.20;99.90
12926;DHT22;6529;50.566;9.774;2023-06-14T06:06:24;15.20;1.00
12926;DHT22;6529;50.566;9.774;2023-06-14T06:08:50;15.40;1.00
12926;DHT22;6529;50.566;9.774;2023-06-14T06:11:16;15.40;1.00
12926;DHT22;6529;50.566;9.774;2023-06-14T06:13:41;15.50;99.90
12926;DHT22;6529;50.566;9.774;2023-06-14T06:16:07;15.60;99.90
12926;DHT22;6529;50.566;9.774;2023-06-14T06:18:32;15.70;99.90
12926;DHT22;6529;50.566;9.774;2023-06-14T06:20:58;15.80;98.00
12926;DHT22;6529;50.566;9.774;2023-06-14T06:23:24;15.80;1.00
12926;DHT22;6529;50.566;9.774;2023-06-14T06:25:50;15.80;1.00
12926;DHT22;6529;50.566;9.774;2023-06-14T06:28:15;16.00;1.00
12926;DHT22;6529;50.566;9.774;2023-06-14T06:30:41;16.00;1.00
12926;DHT22;6529;50.566;9.774;2023-06-14T06:33:07;16.20;1.00
12926;DHT22;6529;50.566;9.774;2023-06-14T06:35:32;16.20;1.00
12926;DHT22;6529;50.566;9.774;2023-06-14T06:37:58;16.20;1.00
12926;DHT22;6529;50.566;9.774;2023-06-14T06:40:24;16.30;1.00
12926;DHT22;6529;50.566;9.774;2023-06-14T06:42:50;16.30;1.00
12926;DHT22;6529;50.566;9.774;2023-06-14T06:45:15;16.40;99.90
12926;DHT22;6529;50.566;9.774;2023-06-14T06:47:41;16.40;99.90
12926;DHT22;6529;50.566;9.774;2023-06-14T06:50:07;16.40;1.00
12926;DHT22;6529;50.566;9.774;2023-06-14T06:52:33;16.60;99.90
12926;DHT22;6529;50.566;9.774;2023-06-14T06:54:58;16.70;99.90
12926;DHT22;6529;50.566;9.774;2023-06-14T06:57:24;16.70;99.90
12926;DHT22;6529;50.566;9.774;2023-06-14T06:59:50;16.70;99.90
12926;DHT22;6529;50.566;9.774;2023-06-14T07:02:16;16.80;99.90
12926;DHT22;6529;50.566;9.774;2023-06-14T07:04:42;17.00;99.90
12926;DHT22;6529;50.566;9.774;2023-06-14T07:07:08;17.00;99.90
12926;DHT22;6529;50.566;9.774;2023-06-14T07:09:35;17.00;1.00
12926;DHT22;6529;50.566;9.774;2023-06-14T07:12:01;17.10;1.00
12926;DHT22;6529;50.566;9.774;2023-06-14T07:14:26;17.30;39.60
12926;DHT22;6529;50.566;9.774;2023-06-14T07:16:52;17.30;1.00
12926;DHT22;6529;50.566;9.774;2023-06-14T07:19:18;17.30;1.00
12926;DHT22;6529;50.566;9.774;2023-06-14T07:21:44;17.30;1.00
12926;DHT22;6529;50.566;9.774;2023-06-14T07:24:09;17.40;1.00
12926;DHT22;6529;50.566;9.774;2023-06-14T07:26:35;17.40;1.00
12926;DHT22;6529;50.566;9.774;2023-06-14T07:29:01;17.60;1.00
12926;DHT22;6529;50.566;9.774;2023-06-14T07:31:27;17.70;1.00
12926;DHT22;6529;50.566;9.774;2023-06-14T07:33:52;17.90;1.00
12926;DHT22;6529;50.566;9.774;2023-06-14T07:36:18;18.00;99.90
12926;DHT22;6529;50.566;9.774;2023-06-14T07:38:44;18.10;1.00
12926;DHT22;6529;50.566;9.774;2023-06-14T07:41:10;18.10;99.90
12926;DHT22;6529;50.566;9.774;2023-06-14T07:43:35;18.20;99.90
12926;DHT22;6529;50.566;9.774;2023-06-14T07:46:01;18.30;99.90
12926;DHT22;6529;50.566;9.774;2023-06-14T07:48:27;18.40;99.90
12926;DHT22;6529;50.566;9.774;2023-06-14T07:50:53;18.60;99.90
12926;DHT22;6529;50.566;9.774;2023-06-14T07:53:18;18.70;99.90
12926;DHT22;6529;50.566;9.774;2023-06-14T07:55:44;18.70;99.90
12926;DHT22;6529;50.566;9.774;2023-06-14T07:58:10;18.80;99.90
12926;DHT22;6529;50.566;9.774;2023-06-14T08:00:36;18.80;99.90
12926;DHT22;6529;50.566;9.774;2023-06-14T08:03:01;18.80;99.90
12926;DHT22;6529;50.566;9.774;2023-06-14T08:05:28;19.00;99.90
12926;DHT22;6529;50.566;9.774;2023-06-14T08:07:54;19.00;1.00
12926;DHT22;6529;50.566;9.774;2023-06-14T08:10:21;19.10;1.00
12926;DHT22;6529;50.566;9.774;2023-06-14T08:12:47;19.10;6.30
12926;DHT22;6529;50.566;9.774;2023-06-14T08:15:14;19.20;89.30
12926;DHT22;6529;50.566;9.774;2023-06-14T08:17:39;19.20;1.00
12926;DHT22;6529;50.566;9.774;2023-06-14T08:20:05;19.30;1.00
12926;DHT22;6529;50.566;9.774;2023-06-14T08:22:31;19.40;20.40
12926;DHT22;6529;50.566;9.774;2023-06-14T08:25:00;19.60;1.00
12926;DHT22;6529;50.566;9.774;2023-06-14T08:27:26;19.70;1.00
12926;DHT22;6529;50.566;9.774;2023-06-14T08:29:52;19.80;1.00
12926;DHT22;6529;50.566;9.774;2023-06-14T08:32:17;20.00;1.00
12926;DHT22;6529;50.566;9.774;2023-06-14T08:34:43;20.10;1.00
12926;DHT22;6529;50.566;9.774;2023-06-14T08:37:08;20.40;1.00
12926;DHT22;6529;50.566;9.774;2023-06-14T08:39:34;20.50;1.00
12926;DHT22;6529;50.566;9.774;2023-06-14T08:42:01;20.60;1.00
12926;DHT22;6529;50.566;9.774;2023-06-14T08:44:29;20.60;1.00
12926;DHT22;6529;50.566;9.774;2023-06-14T08:46:56;20.20;1.00
12926;DHT22;6529;50.566;9.774;2023-06-14T08:49:25;20.00;1.00
12926;DHT22;6529;50.566;9.774;2023-06-14T08:51:57;19.70;1.00
12926;DHT22;6529;50.566;9.774;2023-06-14T08:54:24;19.50;1.00
12926;DHT22;6529;50.566;9.774;2023-06-14T08:56:53;19.30;1.00
12926;DHT22;6529;50.566;9.774;2023-06-14T08:59:24;19.40;1.00
12926;DHT22;6529;50.566;9.774;2023-06-14T09:01:51;20.00;1.00
12926;DHT22;6529;50.566;9.774;2023-06-14T09:04:18;20.40;1.00
12926;DHT22;6529;50.566;9.774;2023-06-14T09:06:45;20.50;1.00
12926;DHT22;6529;50.566;9.774;2023-06-14T09:09:11;20.60;1.00
12926;DHT22;6529;50.566;9.774;2023-06-14T09:11:37;20.70;1.00
12926;DHT22;6529;50.566;9.774;2023-06-14T09:14:03;20.70;1.00
12926;DHT22;6529;50.566;9.774;2023-06-14T09:16:32;20.80;1.00
12926;DHT22;6529;50.566;9.774;2023-06-14T09:18:58;20.70;1.00
12926;DHT22;6529;50.566;9.774;2023-06-14T09:21:24;20.30;1.00
12926;DHT22;6529;50.566;9.774;2023-06-14T09:23:49;20.60;1.00
12926;DHT22;6529;50.566;9.774;2023-06-14T09:26:17;21.10;1.00
12926;DHT22;6529;50.566;9.774;2023-06-14T09:28:47;21.00;1.00
12926;DHT22;6529;50.566;9.774;2023-06-14T09:31:14;20.80;1.00
12926;DHT22;6529;50.566;9.774;2023-06-14T09:33:48;20.80;1.00
12926;DHT22;6529;50.566;9.774;2023-06-14T09:36:22;21.20;1.00
12926;DHT22;6529;50.566;9.774;2023-06-14T09:38:56;21.40;1.00
12926;DHT22;6529;50.566;9.774;2023-06-14T09:41:35;21.20;1.00
12926;DHT22;6529;50.566;9.774;2023-06-14T09:44:03;21.20;1.00
12926;DHT22;6529;50.566;9.774;2023-06-14T09:46:29;21.10;1.00
12926;DHT22;6529;50.566;9.774;2023-06-14T09:48:59;21.00;1.00
12926;DHT22;6529;50.566;9.774;2023-06-14T09:51:27;21.00;1.00
12926;DHT22;6529;50.566;9.774;2023-06-14T09:53:54;21.20;1.00
12926;DHT22;6529;50.566;9.774;2023-06-14T09:56:28;21.20;1.00
12926;DHT22;6529;50.566;9.774;2023-06-14T09:58:56;20.90;99.90
12926;DHT22;6529;50.566;9.774;2023-06-14T10:01:24;20.60;99.90
12926;DHT22;6529;50.566;9.774;2023-06-14T10:03:55;20.80;99.90
12926;DHT22;6529;50.566;9.774;2023-06-14T10:06:25;21.30;1.00
12926;DHT22;6529;50.566;9.774;2023-06-14T10:08:59;22.00;99.90
12926;DHT22;6529;50.566;9.774;2023-06-14T10:11:28;22.20;99.90
12926;DHT22;6529;50.566;9.774;2023-06-14T10:13:55;21.80;99.90
12926;DHT22;6529;50.566;9.774;2023-06-14T10:16:32;22.40;99.90
12926;DHT22;6529;50.566;9.774;2023-06-14T10:19:11;22.70;99.90
12926;DHT22;6529;50.566;9.774;2023-06-14T10:24:17;22.90;99.90
12926;DHT22;6529;50.566;9.774;2023-06-14T10:26:53;23.00;99.90
12926;DHT22;6529;50.566;9.774;2023-06-14T10:29:19;22.60;99.90
12926;DHT22;6529;50.566;9.774;2023-06-14T10:34:12;21.90;99.90
12926;DHT22;6529;50.566;9.774;2023-06-14T10:36:45;22.50;99.90
12926;DHT22;6529;50.566;9.774;2023-06-14T10:39:15;23.00;99.90
12926;DHT22;6529;50.566;9.774;2023-06-14T10:41:50;23.30;99.90
12926;DHT22;6529;50.566;9.774;2023-06-14T10:46:53;23.70;99.90
12926;DHT22;6529;50.566;9.774;2023-06-14T10:49:36;23.90;99.90
12926;DHT22;6529;50.566;9.774;2023-06-14T10:52:11;24.10;99.90
12926;DHT22;6529;50.566;9.774;2023-06-14T10:57:32;23.90;99.90
12926;DHT22;6529;50.566;9.774;2023-06-14T11:00:03;23.70;99.90
12926;DHT22;6529;50.566;9.774;2023-06-14T11:05:54;23.00;99.90
12926;DHT22;6529;50.566;9.774;2023-06-14T11:08:27;23.40;99.90
12926;DHT22;6529;50.566;9.774;2023-06-14T11:10:59;23.10;99.90
12926;DHT22;6529;50.566;9.774;2023-06-14T11:13:26;23.20;99.90
12926;DHT22;6529;50.566;9.774;2023-06-14T11:15:51;23.50;99.90
12926;DHT22;6529;50.566;9.774;2023-06-14T11:18:22;24.10;99.90
12926;DHT22;6529;50.566;9.774;2023-06-14T11:20:52;24.80;99.90
12926;DHT22;6529;50.566;9.774;2023-06-14T11:23:18;24.90;99.90
12926;DHT22;6529;50.566;9.774;2023-06-14T11:25:50;24.70;99.90
12926;DHT22;6529;50.566;9.774;2023-06-14T11:28:15;24.50;99.90
12926;DHT22;6529;50.566;9.774;2023-06-14T11:30:41;24.50;99.90
12926;DHT22;6529;50.566;9.774;2023-06-14T11:33:09;24.50;99.90
12926;DHT22;6529;50.566;9.774;2023-06-14T11:35:36;24.50;99.90
12926;DHT22;6529;50.566;9.774;2023-06-14T11:38:01;24.70;99.90
12926;DHT22;6529;50.566;9.774;2023-06-14T11:40:30;24.90;99.90
12926;DHT22;6529;50.566;9.774;2023-06-14T11:43:00;24.80;99.90
12926;DHT22;6529;50.566;9.774;2023-06-14T11:45:26;24.80;99.90
12926;DHT22;6529;50.566;9.774;2023-06-14T11:47:58;24.20;99.90
12926;DHT22;6529;50.566;9.774;2023-06-14T11:50:25;23.90;99.90
12926;DHT22;6529;50.566;9.774;2023-06-14T11:52:57;23.40;99.90
12926;DHT22;6529;50.566;9.774;2023-06-14T11:55:25;23.50;99.90
12926;DHT22;6529;50.566;9.774;2023-06-14T11:57:51;24.10;99.90
12926;DHT22;6529;50.566;9.774;2023-06-14T12:00:19;24.60;99.90
12926;DHT22;6529;50.566;9.774;2023-06-14T12:02:54;24.30;99.90
12926;DHT22;6529;50.566;9.774;2023-06-14T12:05:21;24.70;99.90
12926;DHT22;6529;50.566;9.774;2023-06-14T12:07:47;25.30;99.90
12926;DHT22;6529;50.566;9.774;2023-06-14T12:10:14;25.50;99.90
12926;DHT22;6529;50.566;9.774;2023-06-14T12:12:40;25.80;99.90
12926;DHT22;6529;50.566;9.774;2023-06-14T12:15:08;25.50;99.90
12926;DHT22;6529;50.566;9.774;2023-06-14T12:17:35;25.50;99.90
12926;DHT22;6529;50.566;9.774;2023-06-14T12:20:06;25.30;99.90
12926;DHT22;6529;50.566;9.774;2023-06-14T12:22:36;25.40;99.90
12926;DHT22;6529;50.566;9.774;2023-06-14T12:25:03;25.40;99.90
12926;DHT22;6529;50.566;9.774;2023-06-14T12:27:29;24.80;99.90
12926;DHT22;6529;50.566;9.774;2023-06-14T12:29:59;24.50;99.90
12926;DHT22;6529;50.566;9.774;2023-06-14T12:32:25;24.30;99.90
12926;DHT22;6529;50.566;9.774;2023-06-14T12:34:50;24.40;99.90
12926;DHT22;6529;50.566;9.774;2023-06-14T12:37:16;24.90;99.90
12926;DHT22;6529;50.566;9.774;2023-06-14T12:39:41;25.80;99.90
12926;DHT22;6529;50.566;9.774;2023-06-14T12:42:07;25.60;99.90
12926;DHT22;6529;50.566;9.774;2023-06-14T12:44:33;26.10;99.90
12926;DHT22;6529;50.566;9.774;2023-06-14T12:47:01;26.00;99.90
12926;DHT22;6529;50.566;9.774;2023-06-14T12:49:26;25.30;99.90
12926;DHT22;6529;50.566;9.774;2023-06-14T12:51:52;25.10;99.90
12926;DHT22;6529;50.566;9.774;2023-06-14T12:54:17;24.70;99.90
12926;DHT22;6529;50.566;9.774;2023-06-14T12:56:43;25.00;99.90
12926;DHT22;6529;50.566;9.774;2023-06-14T12:59:10;25.50;99.90
12926;DHT22;6529;50.566;9.774;2023-06-14T13:01:37;25.30;99.90
12926;DHT22;6529;50.566;9.774;2023-06-14T13:04:03;25.00;99.90
12926;DHT22;6529;50.566;9.774;2023-06-14T13:06:29;24.90;99.90
12926;DHT22;6529;50.566;9.774;2023-06-14T13:08:56;24.80;99.90
12926;DHT22;6529;50.566;9.774;2023-06-14T13:11:23;24.20;99.90
12926;DHT22;6529;50.566;9.774;2023-06-14T13:13:48;24.10;99.90
12926;DHT22;6529;50.566;9.774;2023-06-14T13:16:14;24.50;99.90
12926;DHT22;6529;50.566;9.774;2023-06-14T13:18:40;25.00;99.90
12926;DHT22;6529;50.566;9.774;2023-06-14T13:21:05;25.40;99.90
12926;DHT22;6529;50.566;9.774;2023-06-14T13:23:31;26.00;99.90
12926;DHT22;6529;50.566;9.774;2023-06-14T13:25:56;26.50;99.90
12926;DHT22;6529;50.566;9.774;2023-06-14T13:28:22;26.90;99.90
12926;DHT22;6529;50.566;9.774;2023-06-14T13:30:47;26.50;99.90
12926;DHT22;6529;50.566;9.774;2023-06-14T13:33:13;26.00;99.90
12926;DHT22;6529;50.566;9.774;2023-06-14T13:35:39;25.20;99.90
12926;DHT22;6529;50.566;9.774;2023-06-14T13:38:04;24.80;99.90
12926;DHT22;6529;50.566;9.774;2023-06-14T13:40:30;24.40;99.90
12926;DHT22;6529;50.566;9.774;2023-06-14T13:42:55;24.80;99.90
12926;DHT22;6529;50.566;9.774;2023-06-14T13:45:21;25.20;99.90
12926;DHT22;6529;50.566;9.774;2023-06-14T13:47:47;25.90;99.90
12926;DHT22;6529;50.566;9.774;2023-06-14T13:50:14;26.50;99.90
12926;DHT22;6529;50.566;9.774;2023-06-14T13:52:39;26.50;99.90
12926;DHT22;6529;50.566;9.774;2023-06-14T13:55:05;26.70;99.90
12926;DHT22;6529;50.566;9.774;2023-06-14T13:57:31;27.30;99.90
12926;DHT22;6529;50.566;9.774;2023-06-14T13:59:57;27.10;99.90
12926;DHT22;6529;50.566;9.774;2023-06-14T14:02:27;26.10;99.90
12926;DHT22;6529;50.566;9.774;2023-06-14T14:04:54;25.40;99.90
12926;DHT22;6529;50.566;9.774;2023-06-14T14:07:20;24.90;99.90
12926;DHT22;6529;50.566;9.774;2023-06-14T14:09:46;24.50;99.90
12926;DHT22;6529;50.566;9.774;2023-06-14T14:12:12;24.90;99.90
12926;DHT22;6529;50.566;9.774;2023-06-14T14:14:39;25.60;99.90
12926;DHT22;6529;50.566;9.774;2023-06-14T14:17:05;26.30;99.90
12926;DHT22;6529;50.566;9.774;2023-06-14T14:19:32;26.70;99.90
12926;DHT22;6529;50.566;9.774;2023-06-14T14:21:58;27.00;99.90
12926;DHT22;6529;50.566;9.774;2023-06-14T14:24:23;26.20;99.90
12926;DHT22;6529;50.566;9.774;2023-06-14T14:26:51;25.50;99.90
12926;DHT22;6529;50.566;9.774;2023-06-14T14:29:19;25.10;99.90
12926;DHT22;6529;50.566;9.774;2023-06-14T14:31:45;24.60;99.90
12926;DHT22;6529;50.566;9.774;2023-06-14T14:34:10;24.60;99.90
12926;DHT22;6529;50.566;9.774;2023-06-14T14:36:36;25.30;99.90
12926;DHT22;6529;50.566;9.774;2023-06-14T14:39:04;25.80;99.90
12926;DHT22;6529;50.566;9.774;2023-06-14T14:41:29;26.30;99.90
12926;DHT22;6529;50.566;9.774;2023-06-14T14:43:55;26.40;99.90
12926;DHT22;6529;50.566;9.774;2023-06-14T14:46:21;26.50;99.90
12926;DHT22;6529;50.566;9.774;2023-06-14T14:48:47;26.90;99.60
12926;DHT22;6529;50.566;9.774;2023-06-14T14:51:12;26.90;97.00
12926;DHT22;6529;50.566;9.774;2023-06-14T14:53:38;26.80;94.20
12926;DHT22;6529;50.566;9.774;2023-06-14T14:56:03;25.60;90.30
12926;DHT22;6529;50.566;9.774;2023-06-14T14:58:29;25.20;91.00
12926;DHT22;6529;50.566;9.774;2023-06-14T15:00:55;25.30;96.40
12926;DHT22;6529;50.566;9.774;2023-06-14T15:03:20;25.50;99.90
12926;DHT22;6529;50.566;9.774;2023-06-14T15:05:46;25.40;99.90
12926;DHT22;6529;50.566;9.774;2023-06-14T15:08:12;25.20;99.40
12926;DHT22;6529;50.566;9.774;2023-06-14T15:10:38;25.50;99.90
12926;DHT22;6529;50.566;9.774;2023-06-14T15:13:07;25.30;99.90
12926;DHT22;6529;50.566;9.774;2023-06-14T15:15:33;25.30;99.50
12926;DHT22;6529;50.566;9.774;2023-06-14T15:17:59;25.00;99.90
12926;DHT22;6529;50.566;9.774;2023-06-14T15:20:25;25.40;99.90
12926;DHT22;6529;50.566;9.774;2023-06-14T15:22:51;25.60;99.90
12926;DHT22;6529;50.566;9.774;2023-06-14T15:25:17;26.00;99.90
12926;DHT22;6529;50.566;9.774;2023-06-14T15:27:43;26.60;99.70
12926;DHT22;6529;50.566;9.774;2023-06-14T15:30:09;26.20;92.10
12926;DHT22;6529;50.566;9.774;2023-06-14T15:32:34;25.90;91.90
12926;DHT22;6529;50.566;9.774;2023-06-14T15:35:00;26.00;90.10
12926;DHT22;6529;50.566;9.774;2023-06-14T15:37:26;26.00;88.90
12926;DHT22;6529;50.566;9.774;2023-06-14T15:39:51;26.10;90.60
12926;DHT22;6529;50.566;9.774;2023-06-14T15:42:17;25.90;89.20
12926;DHT22;6529;50.566;9.774;2023-06-14T15:44:42;26.20;90.50
12926;DHT22;6529;50.566;9.774;2023-06-14T15:47:08;26.10;90.10
12926;DHT22;6529;50.566;9.774;2023-06-14T15:49:34;26.40;85.50
12926;DHT22;6529;50.566;9.774;2023-06-14T15:51:59;26.00;80.60
12926;DHT22;6529;50.566;9.774;2023-06-14T15:54:26;25.70;86.90
12926;DHT22;6529;50.566;9.774;2023-06-14T15:56:52;25.70;86.50
12926;DHT22;6529;50.566;9.774;2023-06-14T15:59:18;25.70;90.00
12926;DHT22;6529;50.566;9.774;2023-06-14T16:01:43;25.80;90.90
12926;DHT22;6529;50.566;9.774;2023-06-14T16:04:09;25.70;90.80
12926;DHT22;6529;50.566;9.774;2023-06-14T16:06:34;25.40;91.30
12926;DHT22;6529;50.566;9.774;2023-06-14T16:09:02;25.50;93.40